Time;durP1;ratioP1;P1;durP2;ratioP2;P2;SDS_P1;SDS_P2;PMS_P1;PMS_P2;Temp;Humidity;BMP_temperature;BMP_pressure;BME280_temperature;BME280_humidity;BME280_pressure;Samples;Min_cycle;Max_cycle;Signal;HPM_P1;HPM_P2
2023/08/24 00:01:13;;;;;;;5.07;2.67;;;;;;;15.95;100.00;101691.91;4945381;28;20183;-47
2023/08/24 00:03:39;;;;;;;4.25;2.78;;;;;;;15.95;100.00;101681.09;4938571;28;20233;-47
2023/08/24 00:06:06;;;;;;;5.38;2.83;;;;;;;15.98;100.00;101696.28;4941792;28;20207;-46
2023/08/24 00:08:32;;;;;;;5.18;2.70;;;;;;;15.82;100.00;101696.13;4940097;28;20199;-47
2023/08/24 00:10:58;;;;;;;6.07;2.90;;;;;;;15.84;100.00;101687.00;4941621;28;20341;-48
2023/08/24 00:13:23;;;;;;;2.97;2.20;;;;;;;15.90;100.00;101693.97;4940054;28;20285;-47
2023/08/24 00:15:49;;;;;;;6.53;2.55;;;;;;;15.72;100.00;101697.50;4937020;28;20201;-48
2023/08/24 00:18:14;;;;;;;5.10;2.92;;;;;;;15.62;100.00;101695.19;4945056;28;20182;-46
2023/08/24 00:20:40;;;;;;;4.93;2.80;;;;;;;15.64;100.00;101690.59;4942599;28;20175;-47
2023/08/24 00:23:05;;;;;;;3.47;2.50;;;;;;;15.68;100.00;101690.44;4932755;28;20183;-49
2023/08/24 00:25:31;;;;;;;5.35;3.45;;;;;;;15.41;100.00;101694.34;4939924;28;20210;-48
2023/08/24 00:27:56;;;;;;;4.85;2.88;;;;;;;15.53;100.00;101692.03;4943415;28;20187;-47
2023/08/24 00:30:23;;;;;;;5.55;3.10;;;;;;;15.49;100.00;101701.22;4937521;28;20257;-47
2023/08/24 00:32:49;;;;;;;4.32;3.10;;;;;;;15.50;100.00;101682.22;4942600;28;20195;-47
2023/08/24 00:35:15;;;;;;;4.38;2.60;;;;;;;15.53;100.00;101686.66;4948374;28;20286;-48
2023/08/24 00:37:41;;;;;;;4.97;2.80;;;;;;;15.51;100.00;101689.41;4943495;28;20198;-49
2023/08/24 00:40:09;;;;;;;4.22;2.47;;;;;;;15.35;100.00;101688.31;4942686;28;20199;-49
2023/08/24 00:42:43;;;;;;;3.40;2.33;;;;;;;15.32;100.00;101688.47;4950458;28;20205;-48
2023/08/24 00:45:10;;;;;;;4.85;3.10;;;;;;;15.20;100.00;101669.19;4945189;28;20189;-47
2023/08/24 00:47:42;;;;;;;3.65;3.03;;;;;;;15.06;100.00;101679.69;4942809;28;20199;-49
2023/08/24 00:50:09;;;;;;;3.20;2.60;;;;;;;15.16;100.00;101681.06;4940971;28;20203;-48
2023/08/24 00:52:36;;;;;;;6.03;3.40;;;;;;;15.11;100.00;101684.88;4939509;28;20215;-47
2023/08/24 00:55:03;;;;;;;6.32;3.65;;;;;;;15.17;100.00;101680.09;4941553;28;20218;-48
2023/08/24 00:57:29;;;;;;;3.92;3.13;;;;;;;15.08;100.00;101682.31;4942833;28;20183;-48
2023/08/24 00:59:59;;;;;;;4.80;3.20;;;;;;;15.11;100.00;101696.56;4941991;28;20210;-48
2023/08/24 01:02:26;;;;;;;5.28;3.58;;;;;;;15.00;100.00;101693.47;4945208;28;20664;-47
2023/08/24 01:04:52;;;;;;;3.00;2.70;;;;;;;15.02;100.00;101695.16;4944457;28;20194;-47
2023/08/24 01:07:18;;;;;;;6.25;3.65;;;;;;;14.90;100.00;101701.06;4946281;28;20182;-47
2023/08/24 01:09:45;;;;;;;6.30;4.40;;;;;;;14.82;100.00;101692.41;4943146;28;20199;-48
2023/08/24 01:12:25;;;;;;;5.72;3.38;;;;;;;14.91;100.00;101694.75;4943328;28;20175;-46
2023/08/24 01:15:03;;;;;;;4.95;3.97;;;;;;;14.97;100.00;101707.94;4938806;28;20712;-47
2023/08/24 01:17:30;;;;;;;6.57;5.15;;;;;;;14.81;100.00;101696.94;4952978;28;20178;-48
2023/08/24 01:19:58;;;;;;;4.88;4.40;;;;;;;14.91;100.00;101701.94;4945977;28;20720;-45
2023/08/24 01:22:26;;;;;;;4.90;3.97;;;;;;;14.84;100.00;101698.63;4944443;28;20684;-48
2023/08/24 01:24:57;;;;;;;11.25;4.50;;;;;;;14.76;100.00;101698.09;4941016;28;20185;-47
2023/08/24 01:27:24;;;;;;;3.70;3.40;;;;;;;14.83;100.00;101699.56;4944238;28;20268;-46
2023/08/24 01:29:52;;;;;;;4.57;3.60;;;;;;;14.83;100.00;101696.88;4948893;28;20203;-45
2023/08/24 01:32:18;;;;;;;4.25;3.20;;;;;;;14.80;100.00;101705.97;4942544;28;20629;-46
2023/08/24 01:34:43;;;;;;;3.40;3.10;;;;;;;14.84;100.00;101696.78;4950570;28;20190;-46
2023/08/24 01:37:09;;;;;;;4.47;3.20;;;;;;;14.87;100.00;101705.69;4939126;28;20281;-47
2023/08/24 01:40:00;;;;;;;5.15;4.00;;;;;;;14.87;100.00;101705.69;4941372;28;20239;-48
2023/08/24 01:42:31;;;;;;;5.40;4.05;;;;;;;14.84;100.00;101699.50;4948712;28;20195;-48
2023/08/24 01:45:01;;;;;;;3.97;3.45;;;;;;;14.88;100.00;101707.47;4943057;28;20187;-47
2023/08/24 01:47:28;;;;;;;3.70;3.40;;;;;;;14.81;100.00;101701.47;4942116;28;20207;-46
2023/08/24 01:49:54;;;;;;;4.20;3.80;;;;;;;14.81;100.00;101701.47;4942481;28;20207;-48
2023/08/24 01:52:21;;;;;;;4.47;4.07;;;;;;;14.74;100.00;101698.16;4952040;28;20318;-48
2023/08/24 01:54:48;;;;;;;6.32;5.72;;;;;;;14.54;100.00;101689.94;4936550;28;20178;-47
2023/08/24 01:57:13;;;;;;;5.43;4.90;;;;;;;14.59;100.00;101688.88;4945863;28;20251;-46
2023/08/24 01:59:39;;;;;;;5.43;4.28;;;;;;;14.63;100.00;101690.50;4943718;28;20198;-46
2023/08/24 02:02:04;;;;;;;6.72;4.45;;;;;;;14.62;100.00;101690.53;4944210;28;20218;-48
2023/08/24 02:04:30;;;;;;;7.32;4.28;;;;;;;14.63;100.00;101695.88;4942137;28;20689;-47
2023/08/24 02:06:55;;;;;;;7.22;4.55;;;;;;;14.66;100.00;101702.09;4943460;28;20262;-48
2023/08/24 02:09:21;;;;;;;4.28;3.60;;;;;;;14.67;100.00;101698.44;4942471;28;20693;-45
2023/08/24 02:11:46;;;;;;;6.03;4.28;;;;;;;14.55;100.00;101698.00;4944099;28;20602;-47
2023/08/24 02:14:12;;;;;;;4.03;3.72;;;;;;;14.49;100.00;101694.66;4942158;28;20195;-47
2023/08/24 02:16:37;;;;;;;7.40;4.70;;;;;;;14.26;100.00;101692.91;4942211;28;20214;-46
2023/08/24 02:19:03;;;;;;;5.65;4.63;;;;;;;14.24;100.00;101676.78;4948060;28;20286;-46
2023/08/24 02:21:29;;;;;;;8.65;4.63;;;;;;;14.32;100.00;101679.16;4942491;28;20223;-47
2023/08/24 02:23:55;;;;;;;4.90;4.40;;;;;;;14.36;100.00;101697.84;4942050;28;20689;-46
2023/08/24 02:26:21;;;;;;;5.30;3.63;;;;;;;14.40;100.00;101691.38;4940104;28;20175;-46
2023/08/24 02:28:46;;;;;;;3.80;3.45;;;;;;;14.43;100.00;101690.41;4944105;28;20210;-47
2023/08/24 02:31:12;;;;;;;4.53;3.80;;;;;;;14.41;100.00;101685.06;4941319;28;20665;-47
2023/08/24 02:33:37;;;;;;;4.22;3.75;;;;;;;14.46;100.00;101682.19;4940863;28;20273;-46
2023/08/24 02:36:03;;;;;;;4.70;4.25;;;;;;;14.44;100.00;101681.38;4946165;28;20198;-46
2023/08/24 02:38:29;;;;;;;6.10;4.60;;;;;;;14.38;100.00;101682.47;4941075;28;20741;-48
2023/08/24 02:41:04;;;;;;;5.00;4.45;;;;;;;14.38;100.00;101678.91;4941025;28;20191;-46
2023/08/24 02:43:31;;;;;;;4.30;3.90;;;;;;;14.30;100.00;101684.63;4945673;28;20217;-47
2023/08/24 02:46:04;;;;;;;4.07;3.78;;;;;;;14.32;100.00;101679.16;4944311;28;20206;-47
2023/08/24 02:48:30;;;;;;;4.03;3.63;;;;;;;14.37;100.00;101674.47;4944501;28;20190;-46
2023/08/24 02:51:00;;;;;;;5.55;4.30;;;;;;;14.23;100.00;101680.41;4945021;28;20262;-47
2023/08/24 02:53:26;;;;;;;4.03;3.67;;;;;;;14.32;100.00;101662.97;4941574;28;20728;-46
2023/08/24 02:55:54;;;;;;;3.75;3.45;;;;;;;14.27;100.00;101667.69;4939878;28;20889;-47
2023/08/24 02:58:20;;;;;;;4.65;3.72;;;;;;;14.29;100.00;101672.06;4945724;28;20541;-47
2023/08/24 03:00:46;;;;;;;4.35;3.80;;;;;;;14.23;100.00;101666.94;4941233;28;20273;-47
2023/08/24 03:03:16;;;;;;;4.35;3.42;;;;;;;14.26;100.00;101669.50;4944034;28;20649;-47
2023/08/24 03:05:57;;;;;;;4.50;3.42;;;;;;;14.28;100.00;101678.41;4941692;28;20187;-49
2023/08/24 03:08:23;;;;;;;3.90;3.58;;;;;;;14.19;100.00;101668.88;4944613;28;20190;-47
2023/08/24 03:10:48;;;;;;;4.10;3.70;;;;;;;14.11;100.00;101664.75;4938940;28;20234;-47
2023/08/24 03:13:14;;;;;;;4.68;4.28;;;;;;;14.14;100.00;101673.56;4940077;28;20178;-47
2023/08/24 03:15:40;;;;;;;5.20;4.28;;;;;;;14.14;100.00;101664.59;4944351;28;20301;-47
2023/08/24 03:18:06;;;;;;;5.55;5.05;;;;;;;14.01;100.00;101670.50;4944314;28;20330;-47
2023/08/24 03:20:31;;;;;;;4.00;3.70;;;;;;;14.01;100.00;101662.41;4945812;28;20211;-46
2023/08/24 03:22:57;;;;;;;4.78;3.97;;;;;;;14.06;100.00;101659.53;4940485;28;20178;-47
2023/08/24 03:25:23;;;;;;;4.00;3.60;;;;;;;14.02;100.00;101666.84;4936282;28;20180;-48
2023/08/24 03:27:50;;;;;;;4.07;3.72;;;;;;;13.99;100.00;101658.00;4939148;28;20541;-48
2023/08/24 03:30:17;;;;;;;5.95;3.90;;;;;;;13.89;100.00;101657.50;4941439;28;20583;-46
2023/08/24 03:32:43;;;;;;;4.43;3.30;;;;;;;13.87;100.00;101666.56;4940839;28;20183;-47
2023/08/24 03:35:08;;;;;;;3.42;3.08;;;;;;;13.89;100.00;101665.56;4938719;28;20202;-47
2023/08/24 03:37:34;;;;;;;3.40;2.83;;;;;;;13.91;100.00;101663.69;4942202;28;20794;-49
2023/08/24 03:39:59;;;;;;;3.97;3.28;;;;;;;13.86;100.00;101664.81;4941491;28;20326;-46
2023/08/24 03:42:25;;;;;;;3.55;2.90;;;;;;;13.84;100.00;101686.44;4942808;28;21002;-46
2023/08/24 03:44:50;;;;;;;6.28;3.72;;;;;;;13.74;100.00;101677.81;4939005;28;20229;-49
2023/08/24 03:47:16;;;;;;;3.05;2.85;;;;;;;13.74;100.00;101666.16;4943793;28;20562;-46
2023/08/24 03:49:43;;;;;;;5.53;3.20;;;;;;;13.65;100.00;101653.94;4941688;28;20217;-48
2023/08/24 03:52:09;;;;;;;3.03;2.70;;;;;;;13.71;100.00;101671.66;4945881;28;20182;-49
2023/08/24 03:54:34;;;;;;;3.80;2.95;;;;;;;13.66;100.00;101663.75;4945207;28;20677;-46
2023/08/24 03:57:01;;;;;;;3.15;2.90;;;;;;;13.63;100.00;101663.00;4943001;28;20211;-46
2023/08/24 03:59:26;;;;;;;3.67;3.40;;;;;;;13.56;100.00;101667.75;4943105;28;20293;-48
2023/08/24 04:01:52;;;;;;;3.30;3.00;;;;;;;13.52;100.00;101658.88;4943840;28;20255;-46
2023/08/24 04:04:18;;;;;;;4.03;3.63;;;;;;;13.49;100.00;101653.63;4944383;28;20198;-46
2023/08/24 04:06:43;;;;;;;4.13;3.60;;;;;;;13.54;100.00;101659.72;4944526;28;20257;-46
2023/08/24 04:09:09;;;;;;;3.88;3.58;;;;;;;13.49;100.00;101659.00;4935315;28;20207;-46
2023/08/24 04:11:34;;;;;;;4.85;3.45;;;;;;;13.44;100.00;101669.06;4944081;28;20616;-47
2023/08/24 04:14:00;;;;;;;5.47;3.53;;;;;;;13.33;100.00;101655.97;4941968;28;20265;-46
2023/08/24 04:16:25;;;;;;;4.32;3.85;;;;;;;13.24;100.00;101650.91;4935697;28;20697;-46
2023/08/24 04:18:51;;;;;;;4.03;3.65;;;;;;;13.24;100.00;101658.97;4940105;28;20714;-47
2023/08/24 04:21:17;;;;;;;3.40;3.10;;;;;;;13.28;100.00;101657.06;4938171;28;20185;-47
2023/08/24 04:23:44;;;;;;;2.90;2.70;;;;;;;13.35;100.00;101659.50;4942376;28;20265;-49
2023/08/24 04:26:13;;;;;;;3.17;2.90;;;;;;;13.35;100.00;101658.63;4932939;28;20662;-47
2023/08/24 04:28:39;;;;;;;3.22;2.63;;;;;;;13.42;100.00;101654.78;4935587;28;20218;-48
2023/08/24 04:31:05;;;;;;;3.30;3.10;;;;;;;13.38;100.00;101650.44;4942766;28;20206;-46
2023/08/24 04:33:31;;;;;;;4.85;3.13;;;;;;;13.30;100.00;101655.25;4940339;28;20265;-46
2023/08/24 04:35:56;;;;;;;3.90;3.50;;;;;;;13.14;100.00;101661.13;4935296;28;20195;-46
2023/08/24 04:38:22;;;;;;;3.63;3.00;;;;;;;13.28;100.00;101657.97;4940667;28;20266;-46
2023/08/24 04:40:53;;;;;;;4.07;3.20;;;;;;;13.37;100.00;101652.25;4941087;28;20709;-47
2023/08/24 04:43:20;;;;;;;2.83;2.63;;;;;;;13.37;100.00;101651.38;4938992;28;20603;-46
2023/08/24 04:45:53;;;;;;;3.30;3.00;;;;;;;13.32;100.00;101645.28;4942370;28;20204;-49
2023/08/24 04:48:23;;;;;;;4.97;2.92;;;;;;;13.20;100.00;101644.75;4939482;28;20209;-48
2023/08/24 04:50:49;;;;;;;4.10;3.00;;;;;;;13.35;100.00;101653.25;4942329;28;20265;-47
2023/08/24 04:53:16;;;;;;;4.20;3.08;;;;;;;13.42;100.00;101662.84;4939997;28;20681;-47
2023/08/24 04:55:43;;;;;;;3.35;3.05;;;;;;;13.75;100.00;101657.13;4940152;28;20676;-47
2023/08/24 04:58:09;;;;;;;5.10;3.13;;;;;;;14.00;100.00;101665.16;4936411;28;20179;-47
2023/08/24 05:00:36;;;;;;;4.32;2.95;;;;;;;14.37;100.00;101656.47;4940680;28;20803;-47
2023/08/24 05:03:02;;;;;;;4.82;2.90;;;;;;;14.53;100.00;101664.81;4937835;28;20170;-47
2023/08/24 05:05:34;;;;;;;2.60;2.40;;;;;;;14.65;100.00;101659.88;4944554;28;20187;-49
2023/08/24 05:08:01;;;;;;;5.03;2.38;;;;;;;14.73;100.00;101658.59;4944276;28;20178;-48
2023/08/24 05:10:31;;;;;;;2.67;2.45;;;;;;;14.87;100.00;101659.84;4935619;28;20234;-49
2023/08/24 05:12:56;;;;;;;3.47;2.15;;;;;;;14.91;100.00;101656.06;4940264;28;20190;-47
2023/08/24 05:15:22;;;;;;;2.40;2.20;;;;;;;15.07;100.00;101657.16;4946319;28;20270;-47
2023/08/24 05:17:48;;;;;;;3.25;2.20;;;;;;;15.20;100.00;101660.22;4945795;28;20175;-47
2023/08/24 05:20:13;;;;;;;2.85;2.42;;;;;;;15.23;100.00;101662.75;4945671;28;20207;-49
2023/08/24 05:22:39;;;;;;;2.95;2.50;;;;;;;15.41;100.00;101666.44;4943895;28;20285;-47
2023/08/24 05:25:06;;;;;;;1.92;1.77;;;;;;;15.49;100.00;101658.03;4943470;28;20492;-47
2023/08/24 05:27:31;;;;;;;3.42;2.03;;;;;;;15.57;100.00;101651.31;4943777;28;20206;-45
2023/08/24 05:29:57;;;;;;;4.22;2.28;;;;;;;15.42;100.00;101652.03;4947520;28;20621;-45
2023/08/24 05:32:23;;;;;;;1.85;1.73;;;;;;;15.59;100.00;101662.94;4944261;28;20190;-45
2023/08/24 05:34:49;;;;;;;1.70;1.60;;;;;;;15.77;100.00;101663.06;4942147;28;20637;-46
2023/08/24 05:37:14;;;;;;;2.35;1.98;;;;;;;15.91;100.00;101651.59;4947184;28;20197;-45
2023/08/24 05:39:40;;;;;;;2.30;2.10;;;;;;;16.14;100.00;101650.50;4943758;28;20619;-46
2023/08/24 05:42:06;;;;;;;3.00;1.77;;;;;;;16.18;100.00;101650.28;4941188;28;20281;-44
2023/08/24 05:44:31;;;;;;;2.05;1.83;;;;;;;16.29;100.00;101652.47;4941211;28;20179;-44
2023/08/24 05:46:57;;;;;;;2.10;1.90;;;;;;;16.65;100.00;101651.56;4943197;28;20230;-44
2023/08/24 05:49:22;;;;;;;2.88;1.88;;;;;;;16.99;100.00;101649.84;4941779;28;20266;-41
2023/08/24 05:51:52;;;;;;;3.17;1.85;;;;;;;17.13;100.00;101652.72;4943122;28;20183;-41
2023/08/24 05:54:18;;;;;;;4.82;1.95;;;;;;;17.48;100.00;101652.69;4945468;28;20788;-45
2023/08/24 05:56:47;;;;;;;2.38;2.17;;;;;;;17.78;100.00;101641.13;4938554;28;20211;-44
2023/08/24 05:59:14;;;;;;;3.55;1.80;;;;;;;18.15;100.00;101642.69;4947159;28;20208;-42
2023/08/24 06:01:41;;;;;;;4.80;2.10;;;;;;;18.11;100.00;101643.81;4947156;28;20183;-40
2023/08/24 06:04:07;;;;;;;3.35;2.40;;;;;;;18.38;100.00;101643.19;4947175;28;20195;-40
2023/08/24 06:06:32;;;;;;;2.55;2.35;;;;;;;18.84;100.00;101640.50;4939556;28;20201;-41
2023/08/24 06:08:58;;;;;;;4.15;2.45;;;;;;;19.00;99.00;101646.78;4943293;28;20587;-41
2023/08/24 06:11:23;;;;;;;3.83;2.78;;;;;;;19.13;98.05;101642.34;4939250;28;20178;-40
2023/08/24 06:13:49;;;;;;;2.35;2.13;;;;;;;19.49;97.16;101623.84;4945563;28;20672;-41
2023/08/24 06:16:15;;;;;;;5.28;3.15;;;;;;;18.92;96.22;101632.78;4948329;28;20293;-40
2023/08/24 06:18:40;;;;;;;3.78;2.33;;;;;;;19.31;96.74;101644.88;4947737;28;20206;-40
2023/08/24 06:21:08;;;;;;;3.72;2.65;;;;;;;19.46;96.73;101643.94;4944068;28;20191;-40
2023/08/24 06:23:33;;;;;;;3.15;1.98;;;;;;;19.64;95.64;101630.16;4944843;28;20835;-40
2023/08/24 06:25:59;;;;;;;3.30;1.70;;;;;;;19.83;94.86;101617.16;4944378;28;20215;-41
2023/08/24 06:28:25;;;;;;;13.35;2.60;;;;;;;19.64;92.94;101614.69;4944212;28;20188;-41
2023/08/24 06:30:51;;;;;;;9.00;2.63;;;;;;;19.60;92.90;101599.56;4947647;28;20179;-40
2023/08/24 06:33:17;;;;;;;5.38;2.25;;;;;;;19.42;92.86;101600.75;4945179;28;20672;-40
2023/08/24 06:35:42;;;;;;;5.22;1.90;;;;;;;19.32;92.85;101601.28;4947146;28;20194;-39
2023/08/24 06:38:08;;;;;;;2.88;1.73;;;;;;;20.06;93.05;101603.88;4947461;28;20226;-39
2023/08/24 06:40:33;;;;;;;3.00;1.63;;;;;;;20.46;90.81;101598.50;4942971;28;20210;-45
2023/08/24 06:42:59;;;;;;;6.13;1.70;;;;;;;20.35;87.91;101586.47;4943969;28;20277;-47
2023/08/24 06:45:25;;;;;;;3.33;1.50;;;;;;;20.59;87.40;101580.38;4941283;28;20183;-46
2023/08/24 06:47:51;;;;;;;4.68;1.48;;;;;;;20.41;85.82;101576.16;4943737;28;20174;-48
2023/08/24 06:50:17;;;;;;;8.13;1.90;;;;;;;20.37;85.64;101576.34;4942946;28;20198;-46
2023/08/24 06:52:42;;;;;;;4.18;1.40;;;;;;;20.54;85.41;101572.50;4941614;28;20459;-49
2023/08/24 06:55:11;;;;;;;8.38;1.45;;;;;;;20.73;84.47;101579.44;4941787;28;20220;-47
2023/08/24 06:57:38;;;;;;;5.53;1.67;;;;;;;19.95;84.75;101580.13;4940743;28;20186;-48
2023/08/24 07:00:10;;;;;;;4.10;1.48;;;;;;;20.38;85.69;101582.69;4940813;28;20190;-47
2023/08/24 07:02:36;;;;;;;3.08;1.45;;;;;;;20.58;84.14;101568.63;4946399;28;20178;-48
2023/08/24 07:05:08;;;;;;;5.72;1.67;;;;;;;20.51;82.83;101572.72;4942024;28;20198;-44
2023/08/24 07:07:34;;;;;;;4.88;1.40;;;;;;;20.76;83.11;101571.06;4941711;28;20182;-47
2023/08/24 07:10:00;;;;;;;3.72;1.52;;;;;;;20.53;82.29;101568.03;4943421;28;20209;-46
2023/08/24 07:12:26;;;;;;;3.80;1.50;;;;;;;20.42;82.70;101569.72;4943024;28;20656;-48
2023/08/24 07:14:51;;;;;;;5.50;1.25;;;;;;;21.04;82.00;101558.25;4942373;28;20667;-47
2023/08/24 07:17:18;;;;;;;4.57;1.55;;;;;;;21.14;80.50;101540.22;4936655;28;20205;-45
2023/08/24 07:19:43;;;;;;;8.52;1.67;;;;;;;20.45;79.77;101531.44;4943062;28;20209;-47
2023/08/24 07:22:09;;;;;;;5.22;1.58;;;;;;;20.47;81.01;101540.38;4941371;28;20187;-47
2023/08/24 07:24:36;;;;;;;7.13;1.13;;;;;;;20.77;80.53;101540.09;4939980;28;20577;-47
2023/08/24 07:27:03;;;;;;;3.28;1.08;;;;;;;21.22;79.24;101537.84;4941844;28;20560;-48
2023/08/24 07:29:29;;;;;;;2.28;1.00;;;;;;;20.69;79.61;101531.63;4940441;28;20209;-42
2023/08/24 07:31:54;;;;;;;3.13;1.42;;;;;;;20.92;79.10;101543.59;4944258;28;20175;-45
2023/08/24 07:34:22;;;;;;;8.00;1.30;;;;;;;20.95;78.25;101535.25;4938588;28;20187;-47
2023/08/24 07:36:48;;;;;;;4.72;1.35;;;;;;;21.41;77.42;101523.78;4944550;28;20693;-44
2023/08/24 07:39:15;;;;;;;4.93;1.30;;;;;;;21.64;76.74;101529.41;4948388;29;20206;-46
2023/08/24 07:41:45;;;;;;;9.10;1.33;;;;;;;21.23;77.17;101533.25;4947187;28;20183;-49
2023/08/24 07:44:10;;;;;;;4.07;1.13;;;;;;;21.97;76.82;101526.00;4939370;28;20170;-50
2023/08/24 07:46:36;;;;;;;3.83;1.10;;;;;;;21.81;76.07;101520.84;4945436;28;20193;-46
2023/08/24 07:49:01;;;;;;;5.75;1.25;;;;;;;21.93;74.98;101509.00;4937341;28;20599;-47
2023/08/24 07:51:28;;;;;;;5.22;1.30;;;;;;;22.10;74.81;101510.44;4939487;28;20178;-44
2023/08/24 07:53:53;;;;;;;4.70;1.40;;;;;;;21.60;75.03;101526.91;4942066;28;20237;-48
2023/08/24 07:56:19;;;;;;;6.75;1.60;;;;;;;21.87;75.14;101516.78;4943631;28;20211;-47
2023/08/24 07:58:45;;;;;;;4.38;1.40;;;;;;;21.42;74.64;101519.19;4940963;28;20205;-47
2023/08/24 08:01:11;;;;;;;2.95;1.20;;;;;;;21.23;75.63;101523.25;4943516;28;20166;-46
2023/08/24 08:03:36;;;;;;;4.78;1.30;;;;;;;20.83;75.84;101519.75;4939527;28;20201;-48
2023/08/24 08:06:03;;;;;;;5.10;1.25;;;;;;;21.17;75.55;101520.94;4946690;28;20494;-53
2023/08/24 08:08:28;;;;;;;3.78;1.08;;;;;;;21.39;75.53;101525.72;4942113;28;20218;-52
2023/08/24 08:11:02;;;;;;;6.03;1.42;;;;;;;21.38;75.07;101530.31;4944859;28;20210;-47
2023/08/24 08:13:29;;;;;;;3.63;1.13;;;;;;;21.99;74.24;101522.16;4941623;29;20349;-47
2023/08/24 08:16:05;;;;;;;3.28;1.20;;;;;;;21.68;74.21;101520.00;4948571;28;20251;-47
2023/08/24 08:18:32;;;;;;;4.65;1.30;;;;;;;21.62;74.14;101515.88;4944220;28;20192;-46
2023/08/24 08:20:57;;;;;;;4.72;1.15;;;;;;;21.89;73.23;101506.63;4938019;28;20185;-49
2023/08/24 08:23:23;;;;;;;3.25;1.00;;;;;;;21.77;72.88;101501.09;4945838;28;20269;-46
2023/08/24 08:25:48;;;;;;;4.50;1.08;;;;;;;22.68;72.02;101505.09;4941395;28;20560;-47
2023/08/24 08:28:14;;;;;;;3.25;0.95;;;;;;;22.70;72.12;101507.72;4937672;28;20174;-51
2023/08/24 08:30:39;;;;;;;3.15;1.15;;;;;;;22.30;71.45;101488.97;4938934;28;20616;-50
2023/08/24 08:33:05;;;;;;;4.82;1.20;;;;;;;22.45;70.26;101470.53;4942697;29;20178;-45
2023/08/24 08:35:31;;;;;;;3.80;1.02;;;;;;;22.61;69.46;101471.09;4940052;28;20622;-49
2023/08/24 08:37:56;;;;;;;2.72;0.90;;;;;;;23.36;68.17;101473.25;4939496;28;20193;-46
2023/08/24 08:40:28;;;;;;;4.53;1.17;;;;;;;22.64;67.06;101465.34;4942480;28;20682;-46
2023/08/24 08:42:57;;;;;;;4.50;1.20;;;;;;;22.45;67.92;101479.59;4942910;28;20559;-45
2023/08/24 08:45:26;;;;;;;3.30;1.17;;;;;;;21.74;69.66;101492.28;4942187;28;20166;-46
2023/08/24 08:47:55;;;;;;;3.05;1.17;;;;;;;21.19;71.99;101503.50;4939780;28;20171;-50
2023/08/24 08:50:21;;;;;;;4.90;1.35;;;;;;;20.45;71.87;101496.91;4937166;28;20310;-46
2023/08/24 08:52:47;;;;;;;3.88;1.20;;;;;;;20.83;72.31;101503.41;4945438;28;20186;-48
2023/08/24 08:55:15;;;;;;;3.00;0.80;;;;;;;21.02;71.48;101500.25;4948511;28;20189;-48
2023/08/24 08:57:42;;;;;;;4.50;1.13;;;;;;;21.14;71.18;101500.25;4946979;28;20174;-45
2023/08/24 09:00:12;;;;;;;5.63;1.27;;;;;;;21.18;71.12;101485.38;4939480;28;20274;-51
2023/08/24 09:02:39;;;;;;;3.60;1.00;;;;;;;21.83;69.80;101467.03;4943318;28;20190;-50
2023/08/24 09:05:05;;;;;;;3.83;1.10;;;;;;;21.78;69.02;101461.06;4949678;28;20193;-47
2023/08/24 09:07:32;;;;;;;3.60;1.13;;;;;;;21.47;68.96;101462.47;4943545;28;20201;-46
2023/08/24 09:09:57;;;;;;;3.80;1.10;;;;;;;21.46;68.86;101468.91;4944082;28;20574;-46
2023/08/24 09:12:23;;;;;;;3.75;0.90;;;;;;;21.52;69.26;101474.78;4946676;28;20226;-47
2023/08/24 09:14:49;;;;;;;4.47;1.30;;;;;;;21.73;68.50;101461.38;4942597;28;20639;-44
2023/08/24 09:17:21;;;;;;;2.63;1.15;;;;;;;21.60;68.59;101468.75;4948032;28;20232;-46
2023/08/24 09:19:50;;;;;;;2.55;1.05;;;;;;;21.74;68.70;101463.13;4945410;28;20190;-48
2023/08/24 09:22:15;;;;;;;3.30;1.00;;;;;;;21.70;68.35;101455.31;4942483;28;20187;-51
2023/08/24 09:24:41;;;;;;;5.28;1.13;;;;;;;21.66;67.79;101454.66;4940703;28;20688;-46
2023/08/24 09:27:18;;;;;;;4.85;1.15;;;;;;;21.10;68.33;101452.41;4943402;28;20561;-47
2023/08/24 09:29:48;;;;;;;4.72;1.20;;;;;;;20.90;68.09;101442.94;4945290;28;20553;-47
2023/08/24 09:32:13;;;;;;;7.47;1.40;;;;;;;21.72;69.39;101473.28;4946496;28;20242;-45
2023/08/24 09:34:39;;;;;;;3.10;1.08;;;;;;;22.24;67.74;101462.13;4945608;28;20190;-43
2023/08/24 09:37:12;;;;;;;4.95;1.20;;;;;;;22.35;66.62;101446.69;4947235;28;20206;-44
2023/08/24 09:39:37;;;;;;;2.72;1.00;;;;;;;22.99;64.92;101420.69;4945151;28;20719;-46
2023/08/24 09:42:03;;;;;;;4.30;1.10;;;;;;;22.14;65.65;101426.47;4942127;28;20182;-45
2023/08/24 09:44:28;;;;;;;3.38;1.05;;;;;;;22.40;66.09;101433.53;4948272;28;20649;-43
2023/08/24 09:46:54;;;;;;;4.95;1.17;;;;;;;21.97;65.62;101425.94;4948648;28;20179;-43
2023/08/24 09:49:21;;;;;;;2.47;1.00;;;;;;;21.77;66.37;101427.44;4946577;28;20699;-44
2023/08/24 09:51:48;;;;;;;3.83;1.08;;;;;;;22.05;65.46;101408.97;4944491;28;20194;-45
2023/08/24 09:54:16;;;;;;;2.33;1.00;;;;;;;22.42;65.44;101415.16;4943534;28;20182;-44
2023/08/24 09:56:43;;;;;;;4.57;1.15;;;;;;;23.35;65.14;101422.28;4941961;28;20215;-44
2023/08/24 09:59:18;;;;;;;2.35;0.90;;;;;;;23.71;63.46;101400.19;4947517;28;20213;-42
2023/08/24 10:01:47;;;;;;;3.97;1.05;;;;;;;24.00;60.89;101373.94;4946215;28;20197;-45
2023/08/24 10:04:14;;;;;;;4.57;1.10;;;;;;;23.80;59.60;101358.38;4940889;28;20210;-45
2023/08/24 10:06:42;;;;;;;1.77;0.70;;;;;;;23.45;58.98;101356.75;4953491;28;20217;-44
2023/08/24 10:09:11;;;;;;;4.55;0.90;;;;;;;22.90;58.40;101334.00;4947708;28;20720;-43
2023/08/24 10:11:46;;;;;;;4.80;1.20;;;;;;;23.73;59.02;101382.63;4942447;28;20444;-43
2023/08/24 10:14:28;;;;;;;4.22;0.93;;;;;;;23.43;58.71;101365.06;4942492;28;20193;-42
2023/08/24 10:16:55;;;;;;;1.90;0.80;;;;;;;23.40;58.95;101373.53;4947092;28;20203;-49
2023/08/24 10:19:22;;;;;;;5.13;1.10;;;;;;;23.51;60.98;101399.13;4941609;28;20612;-45
2023/08/24 10:21:50;;;;;;;3.85;0.90;;;;;;;23.18;59.04;101376.34;4941164;28;20199;-46
2023/08/24 10:24:16;;;;;;;4.35;1.08;;;;;;;23.28;59.74;101380.03;4942883;28;20221;-47
2023/08/24 10:26:42;;;;;;;3.47;1.10;;;;;;;22.30;60.50;101377.03;4945744;28;20629;-48
2023/08/24 10:29:08;;;;;;;3.28;1.00;;;;;;;23.15;59.60;101376.56;4946090;28;20292;-44
2023/08/24 10:31:34;;;;;;;2.95;1.17;;;;;;;23.27;58.12;101367.38;4944441;28;20190;-46
2023/08/24 10:34:01;;;;;;;4.97;1.10;;;;;;;23.38;60.00;101385.63;4941505;28;20182;-47
2023/08/24 10:36:28;;;;;;;1.88;0.93;;;;;;;23.61;58.46;101353.56;4946779;28;20203;-46
2023/08/24 10:38:58;;;;;;;3.03;1.00;;;;;;;24.13;58.61;101364.66;4944490;28;20203;-47
2023/08/24 10:41:27;;;;;;;2.95;1.27;;;;;;;22.83;59.10;101370.00;4940650;28;20182;-46
2023/08/24 10:44:04;;;;;;;1.67;0.52;;;;;;;23.89;59.13;101384.09;4943669;28;20190;-45
2023/08/24 10:46:35;;;;;;;2.38;1.00;;;;;;;23.16;56.87;101340.06;4942665;28;20467;-45
2023/08/24 10:49:04;;;;;;;1.88;0.80;;;;;;;23.44;59.41;101385.09;4945894;28;20212;-47
2023/08/24 10:51:31;;;;;;;1.83;0.93;;;;;;;23.93;58.04;101356.31;4943206;28;20193;-44
2023/08/24 10:53:59;;;;;;;3.88;0.95;;;;;;;24.23;58.49;101352.78;4943910;28;20750;-46
2023/08/24 10:56:38;;;;;;;3.03;1.00;;;;;;;23.32;58.93;101336.91;4941655;28;20712;-46
2023/08/24 10:59:12;;;;;;;1.70;0.90;;;;;;;23.19;57.63;101309.72;4953520;23;20701;-45
2023/08/24 11:02:01;;;;;;;4.45;1.20;;;;;;;23.63;56.79;101305.94;4922664;29;20218;-44
2023/08/24 11:04:27;;;;;;;4.30;1.00;;;;;;;23.57;56.36;101294.66;4924250;29;20206;-45
2023/08/24 11:06:58;;;;;;;2.70;0.90;;;;;;;23.65;57.56;101319.50;4921825;29;20235;-46
2023/08/24 11:09:25;;;;;;;1.65;0.80;;;;;;;24.00;58.62;101340.22;4920016;29;20199;-45
2023/08/24 11:12:02;;;;;;;2.00;0.98;;;;;;;24.04;57.56;101323.41;4923830;29;20262;-43
2023/08/24 11:14:30;;;;;;;2.75;1.02;;;;;;;23.60;57.60;101319.88;4924398;29;20696;-43
2023/08/24 11:17:02;;;;;;;2.28;1.15;;;;;;;23.00;58.22;101313.13;4921167;29;20282;-44
2023/08/24 11:19:27;;;;;;;2.78;1.23;;;;;;;23.43;58.21;101314.97;4921048;29;20226;-45
2023/08/24 11:21:53;;;;;;;2.50;1.02;;;;;;;23.50;59.44;101327.13;4921106;29;20192;-43